Time;durP1;ratioP1;P1;durP2;ratioP2;P2;SDS_P1;SDS_P2;PMS_P1;PMS_P2;Temp;Humidity;BMP_temperature;BMP_pressure;BME280_temperature;BME280_humidity;BME280_pressure;Samples;Min_cycle;Max_cycle;Signal;HPM_P1;HPM_P2
2023/11/15 00:01:26;;;;;;;20.30;3.63;;;;;;;;;;4972169;28;20198;-83
2023/11/15 00:03:53;;;;;;;23.47;3.30;;;;;;;;;;4972815;28;20202;-83
2023/11/15 00:06:21;;;;;;;26.60;4.00;;;;;;;;;;4972409;28;20230;-83
2023/11/15 00:08:49;;;;;;;23.67;4.23;;;;;;;;;;4971892;28;20306;-82
2023/11/15 00:11:18;;;;;;;28.43;4.23;;;;;;;;;;4972335;28;20614;-82
2023/11/15 00:13:50;;;;;;;23.23;3.70;;;;;;;;;;4972155;28;20210;-83
2023/11/15 00:16:17;;;;;;;26.50;3.80;;;;;;;;;;4972490;28;20213;-83
2023/11/15 00:18:45;;;;;;;27.23;3.90;;;;;;;;;;4972054;28;20235;-82
2023/11/15 00:21:12;;;;;;;24.57;3.73;;;;;;;;;;4973218;28;20199;-83
2023/11/15 00:23:39;;;;;;;32.97;4.23;;;;;;;;;;4974510;28;20647;-83
2023/11/15 00:26:08;;;;;;;27.67;4.23;;;;;;;;;;4975882;28;20203;-82
2023/11/15 00:28:35;;;;;;;24.73;3.83;;;;;;;;;;4975417;28;20281;-82
2023/11/15 00:31:02;;;;;;;23.03;4.27;;;;;;;;;;4975356;28;20234;-82
2023/11/15 00:33:30;;;;;;;19.67;3.23;;;;;;;;;;4975357;28;20214;-82
2023/11/15 00:35:57;;;;;;;19.40;4.23;;;;;;;;;;4975331;28;20413;-83
2023/11/15 00:38:27;;;;;;;23.97;4.60;;;;;;;;;;4975039;28;20246;-83
2023/11/15 00:40:54;;;;;;;23.03;3.97;;;;;;;;;;4975237;28;20198;-84
2023/11/15 00:43:23;;;;;;;19.73;3.93;;;;;;;;;;4975259;28;20215;-83
2023/11/15 00:45:50;;;;;;;23.80;4.37;;;;;;;;;;4975404;28;20699;-83
2023/11/15 00:48:18;;;;;;;19.77;4.70;;;;;;;;;;4975046;28;20214;-81
2023/11/15 00:50:45;;;;;;;25.73;4.30;;;;;;;;;;4975358;28;20236;-83
2023/11/15 00:53:13;;;;;;;24.07;4.40;;;;;;;;;;4974498;28;20298;-80
2023/11/15 00:55:40;;;;;;;22.80;5.43;;;;;;;;;;4974725;28;20203;-82
2023/11/15 00:58:09;;;;;;;24.40;5.53;;;;;;;;;;4974731;28;20308;-83
2023/11/15 01:00:44;;;;;;;26.30;5.50;;;;;;;;;;4974851;28;20205;-81
2023/11/15 01:03:12;;;;;;;26.73;5.27;;;;;;;;;;4975218;28;20198;-83
2023/11/15 01:05:39;;;;;;;29.07;5.83;;;;;;;;;;4974514;28;20238;-83
2023/11/15 01:08:06;;;;;;;24.97;5.40;;;;;;;;;;4974750;28;20823;-84
2023/11/15 01:10:34;;;;;;;22.43;4.73;;;;;;;;;;4974518;28;20289;-81
2023/11/15 01:13:01;;;;;;;23.17;4.80;;;;;;;;;;4974562;28;20210;-83
2023/11/15 01:15:28;;;;;;;26.40;4.13;;;;;;;;;;4974141;28;20570;-83
2023/11/15 01:17:57;;;;;;;20.90;3.90;;;;;;;;;;4974331;28;20203;-84
2023/11/15 01:20:25;;;;;;;24.50;3.93;;;;;;;;;;4972087;28;20262;-83
2023/11/15 01:22:52;;;;;;;16.13;3.70;;;;;;;;;;4955311;28;20207;-83
2023/11/15 01:25:21;;;;;;;23.03;3.60;;;;;;;;;;4955003;28;20195;-84
2023/11/15 01:27:48;;;;;;;19.83;4.63;;;;;;;;;;4955580;28;20286;-83
2023/11/15 01:30:15;;;;;;;25.50;3.97;;;;;;;;;;4955076;29;20238;-82
2023/11/15 01:32:42;;;;;;;19.23;3.30;;;;;;;;;;4953977;28;20294;-83
2023/11/15 01:35:11;;;;;;;21.50;3.47;;;;;;;;;;4965440;28;20301;-83
2023/11/15 01:37:38;;;;;;;15.87;3.03;;;;;;;;;;4974209;28;20747;-83
2023/11/15 01:40:06;;;;;;;19.03;3.77;;;;;;;;;;4974198;28;20758;-83
2023/11/15 01:42:34;;;;;;;17.30;3.97;;;;;;;;;;4974233;28;20292;-83
2023/11/15 01:45:02;;;;;;;22.67;3.83;;;;;;;;;;4974118;28;20224;-83
2023/11/15 01:47:29;;;;;;;25.00;3.80;;;;;;;;;;4974100;28;20593;-83
2023/11/15 01:49:57;;;;;;;19.20;3.70;;;;;;;;;;4973701;28;20640;-83
2023/11/15 01:52:26;;;;;;;23.17;4.03;;;;;;;;;;4973908;28;20191;-84
2023/11/15 01:54:55;;;;;;;27.67;4.10;;;;;;;;;;4973471;28;20750;-83
2023/11/15 01:57:22;;;;;;;20.20;3.73;;;;;;;;;;4974014;28;20203;-82
2023/11/15 01:59:50;;;;;;;25.37;3.87;;;;;;;;;;4973344;28;20321;-83
2023/11/15 02:02:17;;;;;;;27.77;4.90;;;;;;;;;;4973624;28;20265;-83
2023/11/15 02:04:44;;;;;;;25.03;4.07;;;;;;;;;;4973519;28;20230;-83
2023/11/15 02:07:11;;;;;;;20.00;3.80;;;;;;;;;;4973672;28;20229;-84
2023/11/15 02:09:41;;;;;;;22.90;3.50;;;;;;;;;;4973435;28;20245;-84
2023/11/15 02:12:09;;;;;;;26.30;3.33;;;;;;;;;;4973812;28;20206;-84
2023/11/15 02:14:37;;;;;;;23.33;3.93;;;;;;;;;;4973553;28;20269;-83
2023/11/15 02:17:05;;;;;;;21.93;3.50;;;;;;;;;;4973438;28;20616;-83
2023/11/15 02:19:32;;;;;;;20.90;3.80;;;;;;;;;;4972853;28;20230;-83
2023/11/15 02:22:00;;;;;;;25.73;4.13;;;;;;;;;;4973828;28;20199;-83
2023/11/15 02:24:28;;;;;;;21.07;3.90;;;;;;;;;;4973075;28;20684;-83
2023/11/15 02:26:56;;;;;;;23.73;3.97;;;;;;;;;;4973274;28;20635;-83
2023/11/15 02:29:23;;;;;;;20.27;3.33;;;;;;;;;;4973678;28;20756;-83
2023/11/15 02:31:51;;;;;;;20.93;3.77;;;;;;;;;;4973176;28;20207;-83
2023/11/15 02:34:18;;;;;;;20.80;3.80;;;;;;;;;;4972799;28;20227;-83
2023/11/15 02:36:46;;;;;;;21.70;3.30;;;;;;;;;;4973256;28;20229;-81
2023/11/15 02:39:14;;;;;;;22.87;3.70;;;;;;;;;;4972884;28;20314;-82
2023/11/15 02:41:42;;;;;;;21.37;3.57;;;;;;;;;;4973312;28;20285;-83
2023/11/15 02:44:10;;;;;;;19.87;3.60;;;;;;;;;;4972639;28;20225;-83
2023/11/15 02:46:38;;;;;;;23.43;3.73;;;;;;;;;;4973371;28;20205;-83
2023/11/15 02:49:04;;;;;;;27.70;3.40;;;;;;;;;;4972353;28;20202;-84
2023/11/15 02:51:31;;;;;;;22.17;3.67;;;;;;;;;;4972866;28;20202;-83
2023/11/15 02:53:58;;;;;;;23.03;3.70;;;;;;;;;;4972797;28;20418;-83
2023/11/15 02:56:25;;;;;;;25.43;3.33;;;;;;;;;;4973570;28;20239;-83
2023/11/15 02:58:54;;;;;;;23.13;3.70;;;;;;;;;;4972805;28;20249;-83
2023/11/15 03:01:22;;;;;;;20.63;4.53;;;;;;;;;;4973025;28;20285;-83
2023/11/15 03:03:49;;;;;;;22.23;3.70;;;;;;;;;;4972161;28;20227;-83
2023/11/15 03:06:16;;;;;;;21.83;3.47;;;;;;;;;;4972567;28;20237;-83
2023/11/15 03:08:43;;;;;;;23.30;3.87;;;;;;;;;;4972811;28;20209;-83
2023/11/15 03:11:10;;;;;;;24.10;3.00;;;;;;;;;;4971037;28;21215;-83
2023/11/15 03:13:38;;;;;;;23.50;3.97;;;;;;;;;;4961855;28;20238;-83
2023/11/15 03:16:07;;;;;;;24.50;3.90;;;;;;;;;;4972371;28;20238;-82
2023/11/15 03:18:34;;;;;;;22.57;3.43;;;;;;;;;;4972786;28;20221;-83
2023/11/15 03:21:02;;;;;;;20.87;3.60;;;;;;;;;;4972436;28;20258;-83
2023/11/15 03:23:29;;;;;;;29.50;3.47;;;;;;;;;;4972579;28;20260;-83
2023/11/15 03:25:57;;;;;;;25.53;3.70;;;;;;;;;;4972530;28;20292;-83
2023/11/15 03:28:24;;;;;;;29.33;4.33;;;;;;;;;;4972322;28;20282;-83
2023/11/15 03:30:51;;;;;;;21.87;2.90;;;;;;;;;;4972743;28;20289;-84
2023/11/15 03:33:20;;;;;;;26.03;3.63;;;;;;;;;;4972817;28;20647;-83
2023/11/15 03:35:47;;;;;;;24.63;3.40;;;;;;;;;;4989208;28;20201;-85
2023/11/15 03:38:15;;;;;;;22.50;3.90;;;;;;;;;;4993130;28;20257;-82
2023/11/15 03:40:42;;;;;;;24.90;3.67;;;;;;;;;;4991844;28;20312;-84
2023/11/15 03:43:09;;;;;;;24.37;3.97;;;;;;;;;;4991505;28;20202;-83
2023/11/15 03:45:37;;;;;;;25.97;3.80;;;;;;;;;;4991546;28;20261;-83
2023/11/15 03:48:04;;;;;;;27.40;3.30;;;;;;;;;;4965780;28;20313;-84
2023/11/15 03:50:33;;;;;;;23.73;3.47;;;;;;;;;;4952510;29;20305;-80
2023/11/15 03:53:02;;;;;;;22.47;3.97;;;;;;;;;;4953277;28;20642;-83
2023/11/15 03:55:30;;;;;;;25.27;3.50;;;;;;;;;;4953497;28;20199;-84
2023/11/15 03:57:57;;;;;;;18.73;3.00;;;;;;;;;;4957037;29;20695;-83
2023/11/15 04:00:25;;;;;;;20.07;3.03;;;;;;;;;;4961070;28;20321;-82
2023/11/15 04:02:52;;;;;;;25.63;3.33;;;;;;;;;;4968480;28;20767;-83
2023/11/15 04:05:20;;;;;;;27.33;4.03;;;;;;;;;;4976151;28;20353;-83
2023/11/15 04:07:48;;;;;;;20.40;4.20;;;;;;;;;;4975660;28;20551;-83
2023/11/15 04:10:16;;;;;;;21.47;3.60;;;;;;;;;;4975967;28;20702;-83
2023/11/15 04:12:43;;;;;;;21.93;3.93;;;;;;;;;;4975802;28;20230;-83
2023/11/15 04:15:10;;;;;;;21.57;4.50;;;;;;;;;;4975988;28;20191;-84
2023/11/15 04:17:38;;;;;;;27.27;4.40;;;;;;;;;;4975767;28;20202;-83
2023/11/15 04:20:06;;;;;;;24.17;4.40;;;;;;;;;;4975337;28;20317;-82
2023/11/15 04:22:34;;;;;;;23.10;3.47;;;;;;;;;;4975460;28;20297;-84
2023/11/15 04:25:04;;;;;;;28.83;3.80;;;;;;;;;;4975681;28;20213;-84
2023/11/15 04:27:31;;;;;;;26.73;4.30;;;;;;;;;;4975638;28;20202;-83
2023/11/15 04:29:59;;;;;;;16.77;3.17;;;;;;;;;;4975219;28;20294;-82
2023/11/15 04:32:26;;;;;;;24.10;4.20;;;;;;;;;;4975474;28;20678;-83
2023/11/15 04:34:53;;;;;;;28.60;4.53;;;;;;;;;;4975329;28;20245;-83
2023/11/15 04:37:20;;;;;;;24.13;4.70;;;;;;;;;;4975685;28;20258;-83
2023/11/15 04:39:48;;;;;;;22.77;3.60;;;;;;;;;;4975526;28;20714;-83
2023/11/15 04:42:18;;;;;;;23.73;3.73;;;;;;;;;;4975684;28;20210;-83
2023/11/15 04:44:46;;;;;;;21.17;4.47;;;;;;;;;;4974528;28;20258;-83
2023/11/15 04:47:14;;;;;;;20.83;3.83;;;;;;;;;;4975485;28;20209;-82
2023/11/15 04:49:42;;;;;;;23.90;4.00;;;;;;;;;;4975207;28;20627;-84
2023/11/15 04:52:10;;;;;;;21.97;4.10;;;;;;;;;;4975200;28;20198;-81
2023/11/15 04:54:37;;;;;;;23.57;3.90;;;;;;;;;;4974887;28;20198;-82
2023/11/15 04:57:04;;;;;;;23.40;3.70;;;;;;;;;;4975123;28;20202;-83
2023/11/15 04:59:33;;;;;;;16.27;3.60;;;;;;;;;;4974266;28;20272;-83
2023/11/15 05:02:02;;;;;;;20.97;4.10;;;;;;;;;;4975135;28;20230;-82
2023/11/15 05:04:29;;;;;;;22.27;4.43;;;;;;;;;;4974807;28;20313;-83
2023/11/15 05:06:56;;;;;;;25.13;4.73;;;;;;;;;;4974494;28;20262;-82
2023/11/15 05:09:24;;;;;;;20.90;4.60;;;;;;;;;;4974881;28;20218;-83
2023/11/15 05:11:51;;;;;;;27.37;4.57;;;;;;;;;;4974753;28;20624;-83
2023/11/15 05:14:18;;;;;;;29.00;5.07;;;;;;;;;;4973979;28;20230;-83
2023/11/15 05:16:47;;;;;;;24.60;4.47;;;;;;;;;;4974342;28;20814;-84
2023/11/15 05:19:14;;;;;;;27.33;4.63;;;;;;;;;;4974782;28;20198;-83
2023/11/15 05:21:41;;;;;;;22.90;4.60;;;;;;;;;;4974195;28;20198;-81
2023/11/15 05:24:09;;;;;;;26.07;3.57;;;;;;;;;;4974112;28;20213;-83
2023/11/15 05:26:36;;;;;;;30.80;4.77;;;;;;;;;;4973817;28;20195;-85
2023/11/15 05:29:03;;;;;;;23.37;4.17;;;;;;;;;;4974544;28;20286;-84
2023/11/15 05:31:30;;;;;;;23.67;4.53;;;;;;;;;;4974055;28;20987;-82
2023/11/15 05:33:59;;;;;;;30.93;4.60;;;;;;;;;;4974518;28;20197;-83
2023/11/15 05:36:26;;;;;;;24.77;4.53;;;;;;;;;;4973934;28;20201;-83
2023/11/15 05:38:53;;;;;;;22.53;4.07;;;;;;;;;;4974396;28;20289;-83
2023/11/15 05:41:21;;;;;;;23.30;4.27;;;;;;;;;;4973842;28;20270;-83
2023/11/15 05:43:48;;;;;;;25.67;3.87;;;;;;;;;;4974441;28;20604;-83
2023/11/15 05:46:15;;;;;;;24.70;4.63;;;;;;;;;;4973917;28;20204;-83
2023/11/15 05:48:43;;;;;;;26.10;4.50;;;;;;;;;;4974397;28;20199;-82
2023/11/15 05:51:11;;;;;;;27.00;4.87;;;;;;;;;;4973388;28;20647;-83
2023/11/15 05:53:38;;;;;;;23.63;5.50;;;;;;;;;;4973911;28;20237;-82
2023/11/15 05:56:06;;;;;;;23.97;5.70;;;;;;;;;;4973526;28;20202;-82
2023/11/15 05:58:33;;;;;;;25.07;4.97;;;;;;;;;;4973092;28;20273;-83
2023/11/15 06:01:00;;;;;;;21.93;4.90;;;;;;;;;;4973604;28;20321;-82
2023/11/15 06:03:27;;;;;;;22.97;5.57;;;;;;;;;;4973213;28;20234;-82
2023/11/15 06:05:54;;;;;;;28.40;7.43;;;;;;;;;;4973558;28;20206;-81
2023/11/15 06:08:24;;;;;;;26.53;6.73;;;;;;;;;;4972188;28;20290;-82
2023/11/15 06:10:51;;;;;;;20.63;6.50;;;;;;;;;;4956037;28;20210;-82
2023/11/15 06:13:18;;;;;;;29.77;8.07;;;;;;;;;;4969972;28;20213;-82
2023/11/15 06:15:46;;;;;;;28.73;7.07;;;;;;;;;;4969385;28;20685;-82
2023/11/15 06:18:13;;;;;;;29.83;5.93;;;;;;;;;;4967622;28;20208;-82
2023/11/15 06:20:41;;;;;;;21.97;4.87;;;;;;;;;;4964810;28;20579;-84
2023/11/15 06:23:08;;;;;;;30.63;5.77;;;;;;;;;;4957352;28;20270;-82
2023/11/15 06:25:37;;;;;;;23.73;5.53;;;;;;;;;;4969930;28;20195;-81
2023/11/15 06:28:05;;;;;;;24.73;6.20;;;;;;;;;;4954846;28;20206;-81
2023/11/15 06:30:32;;;;;;;27.27;7.10;;;;;;;;;;4970702;28;20216;-81
2023/11/15 06:32:59;;;;;;;28.13;8.40;;;;;;;;;;4972397;28;20221;-81
2023/11/15 06:35:26;;;;;;;28.57;7.43;;;;;;;;;;4970775;28;20666;-81
2023/11/15 06:37:54;;;;;;;29.37;7.40;;;;;;;;;;4972535;28;20313;-82
2023/11/15 06:40:22;;;;;;;30.40;7.30;;;;;;;;;;4952830;28;20235;-81
2023/11/15 06:42:50;;;;;;;26.90;6.60;;;;;;;;;;4969887;28;20298;-82
2023/11/15 06:45:17;;;;;;;28.00;6.47;;;;;;;;;;4966616;28;20306;-81
2023/11/15 06:47:45;;;;;;;22.20;5.97;;;;;;;;;;4954127;28;20295;-81
2023/11/15 06:50:13;;;;;;;26.00;5.60;;;;;;;;;;4953605;29;20206;-81
2023/11/15 06:52:40;;;;;;;32.83;5.93;;;;;;;;;;4936530;29;20262;-81
2023/11/15 06:55:10;;;;;;;28.30;5.60;;;;;;;;;;4953237;29;20750;-82
2023/11/15 06:57:39;;;;;;;30.50;6.27;;;;;;;;;;4954049;29;20215;-79
2023/11/15 07:00:08;;;;;;;23.97;5.47;;;;;;;;;;4953199;29;20262;-82
2023/11/15 07:02:35;;;;;;;27.97;6.17;;;;;;;;;;4953295;29;20694;-83
2023/11/15 07:05:04;;;;;;;28.77;5.80;;;;;;;;;;4953530;29;20294;-82
2023/11/15 07:07:31;;;;;;;28.83;6.63;;;;;;;;;;4953184;29;20262;-82
2023/11/15 07:09:59;;;;;;;33.10;6.73;;;;;;;;;;4952769;29;20664;-81
2023/11/15 07:12:29;;;;;;;28.30;6.37;;;;;;;;;;4953167;29;20208;-83
2023/11/15 07:14:57;;;;;;;24.97;6.07;;;;;;;;;;4960242;28;20215;-82
2023/11/15 07:17:25;;;;;;;33.70;6.27;;;;;;;;;;4970197;28;20210;-81
2023/11/15 07:19:52;;;;;;;30.83;6.53;;;;;;;;;;4953107;29;20238;-79
2023/11/15 07:22:20;;;;;;;29.00;6.93;;;;;;;;;;4957757;28;20233;-82
2023/11/15 07:24:47;;;;;;;25.87;7.67;;;;;;;;;;4972114;28;20289;-80
2023/11/15 07:27:17;;;;;;;30.43;9.03;;;;;;;;;;4972443;28;20198;-81
2023/11/15 07:29:46;;;;;;;36.47;9.20;;;;;;;;;;4973182;28;20209;-81
2023/11/15 07:32:13;;;;;;;23.60;8.13;;;;;;;;;;4960283;28;20198;-81
2023/11/15 07:34:42;;;;;;;27.07;8.30;;;;;;;;;;4964241;28;20736;-81
2023/11/15 07:37:10;;;;;;;34.07;7.70;;;;;;;;;;4975605;28;20241;-81
2023/11/15 07:39:37;;;;;;;19.13;6.77;;;;;;;;;;4976385;28;20214;-81
2023/11/15 07:42:05;;;;;;;29.47;6.90;;;;;;;;;;4976350;28;20230;-82
2023/11/15 07:44:32;;;;;;;20.13;6.60;;;;;;;;;;4976266;28;20226;-82
2023/11/15 07:46:59;;;;;;;27.33;6.13;;;;;;;;;;4976251;28;20194;-81
2023/11/15 07:49:28;;;;;;;22.20;6.07;;;;;;;;;;4976081;28;20656;-81
2023/11/15 07:51:57;;;;;;;23.27;5.27;;;;;;;;;;4975956;28;20206;-81
2023/11/15 07:54:24;;;;;;;19.30;5.50;;;;;;;;;;4976042;28;20289;-81
2023/11/15 07:56:51;;;;;;;19.67;6.40;;;;;;;;;;4976066;28;20289;-81
2023/11/15 07:59:21;;;;;;;20.47;6.87;;;;;;;;;;4976190;28;20282;-82
2023/11/15 08:01:48;;;;;;;28.00;9.53;;;;;;;;;;4968635;28;20613;-80
2023/11/15 08:04:16;;;;;;;23.33;9.57;;;;;;;;;;4975458;28;20573;-80
2023/11/15 08:06:43;;;;;;;24.10;8.30;;;;;;;;;;4975483;28;20281;-81
2023/11/15 08:09:23;;;;;;;19.27;7.83;;;;;;;;;;4975885;28;20203;-81
2023/11/15 08:11:53;;;;;;;25.17;6.60;;;;;;;;;;4976043;28;20237;-80
2023/11/15 08:14:21;;;;;;;20.27;7.30;;;;;;;;;;4975336;28;20604;-81
2023/11/15 08:16:48;;;;;;;16.00;7.37;;;;;;;;;;4975624;28;20305;-81
2023/11/15 08:19:15;;;;;;;15.55;6.75;;;;;;;;;;4975450;28;20241;-80
2023/11/15 08:21:44;;;;;;;19.58;6.82;;;;;;;;;;4975006;28;20328;-81
2023/11/15 08:24:16;;;;;;;13.88;4.97;;;;;;;;;;4975651;28;20261;-80
2023/11/15 08:26:44;;;;;;;13.20;4.82;;;;;;;;;;4975445;28;20211;-81
2023/11/15 08:29:12;;;;;;;17.60;5.28;;;;;;;;;;4975271;28;20202;-81
2023/11/15 08:31:39;;;;;;;14.05;4.60;;;;;;;;;;4975273;28;20202;-80
2023/11/15 08:34:06;;;;;;;13.23;3.60;;;;;;;;;;4975687;28;20639;-80
2023/11/15 08:36:33;;;;;;;16.25;3.72;;;;;;;;;;4974984;28;20798;-81
2023/11/15 08:39:00;;;;;;;13.23;4.65;;;;;;;;;;4975252;28;20198;-82
2023/11/15 08:41:29;;;;;;;16.92;4.40;;;;;;;;;;4974857;28;20226;-82
2023/11/15 08:43:56;;;;;;;10.77;4.78;;;;;;;;;;4975082;28;20703;-81
2023/11/15 08:46:26;;;;;;;11.80;4.10;;;;;;;;;;4975026;28;20222;-81
2023/11/15 08:48:54;;;;;;;10.73;3.58;;;;;;;;;;4975341;28;20211;-82
2023/11/15 08:51:23;;;;;;;13.15;3.60;;;;;;;;;;4974715;28;20301;-81
2023/11/15 08:53:50;;;;;;;11.45;3.30;;;;;;;;;;4975157;28;20198;-81
2023/11/15 08:56:18;;;;;;;10.55;3.70;;;;;;;;;;4974436;28;20614;-81
2023/11/15 08:58:47;;;;;;;9.60;3.35;;;;;;;;;;4966059;28;20719;-81
2023/11/15 09:01:16;;;;;;;13.95;3.20;;;;;;;;;;4955320;28;20227;-81
2023/11/15 09:03:45;;;;;;;10.88;3.60;;;;;;;;;;4955217;28;20210;-80
2023/11/15 09:06:14;;;;;;;9.77;3.00;;;;;;;;;;4955036;28;20199;-81
2023/11/15 09:08:41;;;;;;;11.10;3.05;;;;;;;;;;4955760;29;20203;-80
2023/11/15 09:11:12;;;;;;;15.23;3.33;;;;;;;;;;4955419;29;20242;-80
2023/11/15 09:13:39;;;;;;;11.18;2.70;;;;;;;;;;4955412;29;20207;-81
2023/11/15 09:16:12;;;;;;;11.73;3.05;;;;;;;;;;4954991;29;20210;-80
2023/11/15 09:18:39;;;;;;;11.57;2.78;;;;;;;;;;4955114;29;20635;-81
2023/11/15 09:21:07;;;;;;;11.30;2.90;;;;;;;;;;4955242;29;20331;-80
2023/11/15 09:23:36;;;;;;;13.98;2.58;;;;;;;;;;4971947;28;20226;-80
2023/11/15 09:26:04;;;;;;;11.90;2.90;;;;;;;;;;4974387;28;20754;-79
2023/11/15 09:28:31;;;;;;;8.90;2.30;;;;;;;;;;4974223;28;20199;-81
2023/11/15 09:30:58;;;;;;;13.38;2.90;;;;;;;;;;4974679;28;20245;-80
2023/11/15 09:33:27;;;;;;;9.23;2.45;;;;;;;;;;4973844;28;20285;-81
2023/11/15 09:35:54;;;;;;;11.70;2.70;;;;;;;;;;4974288;28;20206;-82
2023/11/15 09:38:21;;;;;;;8.75;2.90;;;;;;;;;;4974265;28;20639;-81
2023/11/15 09:40:50;;;;;;;12.25;2.70;;;;;;;;;;4973976;28;20576;-80
2023/11/15 09:43:19;;;;;;;12.48;2.58;;;;;;;;;;4973932;28;20754;-81
2023/11/15 09:45:47;;;;;;;10.82;3.08;;;;;;;;;;4973842;28;20195;-81
2023/11/15 09:48:14;;;;;;;7.97;2.10;;;;;;;;;;4973601;28;20213;-81
2023/11/15 09:50:44;;;;;;;8.25;2.28;;;;;;;;;;4973922;28;20403;-81
2023/11/15 09:53:11;;;;;;;10.13;2.20;;;;;;;;;;4972710;28;20695;-81
2023/11/15 09:55:39;;;;;;;12.15;2.50;;;;;;;;;;4973899;28;20195;-81
2023/11/15 09:58:06;;;;;;;15.20;2.90;;;;;;;;;;4973568;28;20203;-79
2023/11/15 10:00:33;;;;;;;12.90;2.63;;;;;;;;;;4973661;28;20233;-81
2023/11/15 10:03:01;;;;;;;11.15;2.97;;;;;;;;;;4973439;28;20325;-80
2023/11/15 10:05:28;;;;;;;10.65;2.40;;;;;;;;;;4973840;28;20552;-80
2023/11/15 10:08:13;;;;;;;8.90;2.15;;;;;;;;;;4973056;28;20199;-80
2023/11/15 10:10:41;;;;;;;8.38;2.60;;;;;;;;;;4973739;28;20225;-82
2023/11/15 10:13:13;;;;;;;9.00;2.08;;;;;;;;;;4973199;28;20675;-80
2023/11/15 10:15:55;;;;;;;9.40;1.90;;;;;;;;;;5129531;27;20550;-82
2023/11/15 10:18:32;;;;;;;11.38;2.55;;;;;;;;;;5129523;27;20217;-81
2023/11/15 10:21:07;;;;;;;7.43;2.00;;;;;;;;;;5129947;27;20733;-81
2023/11/15 10:23:35;;;;;;;6.75;2.03;;;;;;;;;;5129623;27;20204;-81
2023/11/15 10:26:02;;;;;;;12.10;2.30;;;;;;;;;;5129493;28;20225;-81
2023/11/15 10:28:32;;;;;;;10.85;3.13;;;;;;;;;;5128978;27;20681;-81
2023/11/15 10:31:05;;;;;;;10.02;2.53;;;;;;;;;;5129367;28;20197;-81
2023/11/15 10:33:34;;;;;;;12.70;2.90;;;;;;;;;;5129620;28;20638;-81
2023/11/15 10:36:23;;;;;;;12.55;3.20;;;;;;;;;;5129579;28;20204;-80
2023/11/15 10:38:51;;;;;;;13.25;3.08;;;;;;;;;;5129513;27;20291;-81
2023/11/15 10:41:20;;;;;;;8.10;2.58;;;;;;;;;;5129080;27;20225;-81
2023/11/15 10:43:48;;;;;;;7.97;2.08;;;;;;;;;;5129309;27;20812;-81
2023/11/15 10:46:18;;;;;;;11.77;2.30;;;;;;;;;;5129218;27;20258;-81
2023/11/15 10:48:47;;;;;;;9.00;2.35;;;;;;;;;;5129173;27;20193;-81
2023/11/15 10:51:20;;;;;;;12.93;2.30;;;;;;;;;;5128600;27;20250;-81
2023/11/15 10:53:48;;;;;;;7.43;1.63;;;;;;;;;;5129113;27;20193;-81
2023/11/15 10:56:15;;;;;;;9.43;2.25;;;;;;;;;;5129506;27;20195;-81
2023/11/15 10:58:45;;;;;;;9.52;2.03;;;;;;;;;;5129115;27;20194;-81
2023/11/15 11:01:16;;;;;;;9.20;2.05;;;;;;;;;;5128634;27;20198;-80
2023/11/15 11:03:46;;;;;;;8.05;1.90;;;;;;;;;;5128954;27;20194;-81
2023/11/15 11:06:18;;;;;;;7.70;1.90;;;;;;;;;;5128678;27;20195;-80
2023/11/15 11:08:53;;;;;;;10.05;2.40;;;;;;;;;;5128858;28;20225;-80
2023/11/15 11:11:23;;;;;;;8.10;1.63;;;;;;;;;;5128908;27;20288;-80
2023/11/15 11:14:09;;;;;;;9.07;2.28;;;;;;;;;;5128582;27;20256;-80
2023/11/15 11:16:37;;;;;;;9.85;2.00;;;;;;;;;;5128592;27;20703;-81
2023/11/15 11:19:14;;;;;;;7.20;2.03;;;;;;;;;;5127897;27;20617;-80
2023/11/15 11:22:01;;;;;;;6.80;1.88;;;;;;;;;;5128549;27;20579;-81
2023/11/15 11:24:31;;;;;;;10.07;1.80;;;;;;;;;;5128498;27;20217;-80
2023/11/15 11:27:22;;;;;;;7.68;1.70;;;;;;;;;;5116495;27;20189;-80
2023/11/15 11:30:13;;;;;;;9.50;1.75;;;;;;;;;;5114540;28;20198;-81
2023/11/15 11:32:43;;;;;;;6.85;1.55;;;;;;;;;;5114589;28;20247;-80
2023/11/15 11:35:35;;;;;;;7.55;1.75;;;;;;;;;;5114213;28;20243;-81
2023/11/15 11:38:03;;;;;;;5.95;1.48;;;;;;;;;;5114849;28;20302;-80
2023/11/15 11:40:33;;;;;;;8.45;1.77;;;;;;;;;;5114562;28;20198;-80
2023/11/15 11:43:15;;;;;;;7.35;1.48;;;;;;;;;;5114668;28;20204;-80
2023/11/15 11:45:42;;;;;;;6.65;1.90;;;;;;;;;;5113835;28;20544;-81
2023/11/15 11:48:16;;;;;;;7.68;1.50;;;;;;;;;;5114266;28;20654;-81
2023/11/15 11:50:53;;;;;;;8.55;1.88;;;;;;;;;;5114435;28;20569;-81
2023/11/15 11:53:21;;;;;;;8.52;1.80;;;;;;;;;;5114128;28;20225;-79
2023/11/15 11:55:50;;;;;;;8.13;1.50;;;;;;;;;;5114345;28;20311;-79
2023/11/15 11:58:17;;;;;;;6.25;1.55;;;;;;;;;;5112748;28;20194;-80
2023/11/15 12:00:44;;;;;;;8.68;1.27;;;;;;;;;;5114291;28;20194;-81
2023/11/15 12:03:12;;;;;;;7.60;1.25;;;;;;;;;;5114316;28;20200;-80
2023/11/15 12:05:39;;;;;;;4.28;1.17;;;;;;;;;;5122774;27;20284;-80
2023/11/15 12:08:08;;;;;;;6.90;1.52;;;;;;;;;;5112984;27;20277;-79
2023/11/15 12:10:36;;;;;;;4.80;1.20;;;;;;;;;;5127921;27;20288;-78
2023/11/15 12:13:04;;;;;;;7.72;1.33;;;;;;;;;;5123885;27;20196;-80
2023/11/15 12:15:31;;;;;;;7.13;1.60;;;;;;;;;;5123934;27;20313;-80
2023/11/15 12:18:02;;;;;;;8.20;1.45;;;;;;;;;;5118558;28;20674;-81
2023/11/15 12:20:30;;;;;;;8.68;1.73;;;;;;;;;;5118516;27;20669;-81
2023/11/15 12:23:04;;;;;;;7.00;1.63;;;;;;;;;;5131366;27;20208;-81
2023/11/15 12:25:33;;;;;;;8.38;1.85;;;;;;;;;;5127276;27;20197;-81
2023/11/15 12:28:03;;;;;;;7.13;1.58;;;;;;;;;;5113040;28;20194;-81
2023/11/15 12:30:33;;;;;;;5.55;1.42;;;;;;;;;;5113332;28;20244;-81
2023/11/15 12:33:02;;;;;;;8.95;1.70;;;;;;;;;;5113180;28;20727;-80
2023/11/15 12:35:30;;;;;;;4.63;1.13;;;;;;;;;;5114615;27;20724;-81
2023/11/15 12:37:59;;;;;;;7.20;1.70;;;;;;;;;;5111474;27;20198;-79
2023/11/15 12:40:27;;;;;;;7.85;1.35;;;;;;;;;;5115509;27;20202;-81
2023/11/15 12:42:56;;;;;;;5.97;1.40;;;;;;;;;;5113470;28;20281;-81
2023/11/15 12:45:29;;;;;;;7.93;1.70;;;;;;;;;;5128675;27;20197;-80
2023/11/15 12:48:01;;;;;;;9.40;1.77;;;;;;;;;;5133742;27;20285;-81
2023/11/15 12:50:29;;;;;;;7.72;1.40;;;;;;;;;;5125897;27;20651;-81
2023/11/15 12:53:04;;;;;;;6.07;1.73;;;;;;;;;;5112650;28;20572;-80
2023/11/15 12:55:49;;;;;;;6.97;1.52;;;;;;;;;;5113025;28;20226;-80
2023/11/15 12:58:18;;;;;;;8.00;1.52;;;;;;;;;;5111012;28;20576;-80
2023/11/15 13:00:59;;;;;;;9.57;1.63;;;;;;;;;;5129653;27;20203;-81
2023/11/15 13:03:27;;;;;;;7.28;1.50;;;;;;;;;;5115423;27;20193;-80
2023/11/15 13:05:57;;;;;;;5.72;1.50;;;;;;;;;;5112817;27;20198;-81
2023/11/15 13:08:25;;;;;;;5.70;1.63;;;;;;;;;;5112047;28;20201;-80
2023/11/15 13:10:55;;;;;;;6.97;1.63;;;;;;;;;;5107196;28;20194;-80
2023/11/15 13:13:24;;;;;;;8.10;1.95;;;;;;;;;;5112315;28;20280;-81
2023/11/15 13:15:52;;;;;;;7.32;1.70;;;;;;;;;;5112581;27;20217;-80
2023/11/15 13:18:19;;;;;;;6.35;1.67;;;;;;;;;;5133175;27;20649;-81
2023/11/15 13:20:46;;;;;;;7.20;1.65;;;;;;;;;;5133265;27;20223;-80
2023/11/15 13:23:14;;;;;;;11.18;2.03;;;;;;;;;;4755252;27;9999865;-81
2023/11/15 13:25:41;;;;;;;10.93;2.10;;;;;;;;;;5109341;28;20271;-80
2023/11/15 13:28:09;;;;;;;7.50;2.00;;;;;;;;;;5109198;28;20815;-80
2023/11/15 13:30:39;;;;;;;7.35;1.77;;;;;;;;;;5118472;27;20246;-80
2023/11/15 13:33:06;;;;;;;5.80;1.75;;;;;;;;;;5111199;28;20288;-81
2023/11/15 13:35:34;;;;;;;7.60;1.60;;;;;;;;;;5111899;27;20305;-81
2023/11/15 13:38:01;;;;;;;6.78;1.73;;;;;;;;;;5132898;27;20621;-81
2023/11/15 13:40:29;;;;;;;6.50;1.70;;;;;;;;;;5117906;27;20280;-82
2023/11/15 13:42:58;;;;;;;5.05;1.58;;;;;;;;;;5112072;27;20251;-82
2023/11/15 13:45:26;;;;;;;6.80;1.30;;;;;;;;;;5111943;28;20272;-81
2023/11/15 13:47:56;;;;;;;4.43;1.20;;;;;;;;;;5108788;28;20209;-80
2023/11/15 13:50:24;;;;;;;6.03;0.98;;;;;;;;;;5112165;28;20189;-81
2023/11/15 13:52:52;;;;;;;3.85;1.00;;;;;;;;;;5111902;28;20293;-82
2023/11/15 13:55:19;;;;;;;8.90;1.55;;;;;;;;;;5111885;28;20221;-82
2023/11/15 13:57:46;;;;;;;7.10;1.65;;;;;;;;;;5112153;28;20220;-81
2023/11/15 14:00:14;;;;;;;6.10;1.52;;;;;;;;;;5112008;28;20221;-80
2023/11/15 14:02:41;;;;;;;8.98;1.48;;;;;;;;;;5111618;28;20206;-81
2023/11/15 14:05:14;;;;;;;7.10;1.25;;;;;;;;;;5112612;28;20308;-81
2023/11/15 14:07:43;;;;;;;5.90;1.20;;;;;;;;;;5112212;28;20194;-81
2023/11/15 14:10:10;;;;;;;5.10;1.25;;;;;;;;;;5111778;28;20225;-81
2023/11/15 14:12:39;;;;;;;6.75;1.30;;;;;;;;;;5111367;28;20205;-81
2023/11/15 14:15:10;;;;;;;7.13;1.77;;;;;;;;;;5111847;28;20320;-82
2023/11/15 14:17:38;;;;;;;4.60;1.48;;;;;;;;;;5112143;28;20207;-81
2023/11/15 14:20:05;;;;;;;8.27;1.58;;;;;;;;;;5111722;28;20289;-80
2023/11/15 14:22:34;;;;;;;7.10;1.55;;;;;;;;;;5111840;28;20247;-80
2023/11/15 14:25:06;;;;;;;7.22;1.65;;;;;;;;;;5111399;28;20288;-81
2023/11/15 14:27:37;;;;;;;5.35;1.40;;;;;;;;;;5112012;28;20258;-81
2023/11/15 14:30:05;;;;;;;8.55;1.75;;;;;;;;;;5111927;28;20669;-81
2023/11/15 14:32:32;;;;;;;7.20;1.67;;;;;;;;;;5110258;28;20201;-81
2023/11/15 14:35:00;;;;;;;6.03;1.30;;;;;;;;;;5101683;28;20260;-81
2023/11/15 14:37:27;;;;;;;9.70;1.95;;;;;;;;;;5090131;28;20255;-80
2023/11/15 14:39:56;;;;;;;13.30;2.58;;;;;;;;;;5123955;28;20190;-81
2023/11/15 14:42:24;;;;;;;8.68;1.92;;;;;;;;;;5090821;28;20194;-81